Time;durP1;ratioP1;P1;durP2;ratioP2;P2;SDS_P1;SDS_P2;PMS_P1;PMS_P2;Temp;Humidity;BMP_temperature;BMP_pressure;BME280_temperature;BME280_humidity;BME280_pressure;Samples;Min_cycle;Max_cycle;Signal;HPM_P1;HPM_P2
2024/03/07 08:21:56;;;;;;;13.68;4.78;;;;;;;5.44;100.00;98824.22;5035348;23;20050;-96
2024/03/07 08:24:58;;;;;;;13.27;4.50;;;;;;;5.62;100.00;98820.63;5002386;28;20118;-96
2024/03/07 08:28:10;;;;;;;12.50;4.25;;;;;;;5.89;100.00;98836.25;5011608;28;20042;-96
2024/03/07 08:30:48;;;;;;;7.57;3.60;;;;;;;6.63;100.00;98906.13;5258048;23;20029;-95
2024/03/07 08:44:14;;;;;;;9.75;3.60;;;;;;;6.67;100.00;98892.88;6037036;22;20029;31
2024/03/07 08:46:55;;;;;;;10.18;4.25;;;;;;;6.70;100.00;98858.50;4966171;29;20048;-96
2024/03/07 08:49:25;;;;;;;11.73;4.10;;;;;;;6.66;100.00;98838.28;4934398;29;20048;-93
2024/03/07 08:51:51;;;;;;;11.10;4.10;;;;;;;6.82;100.00;98827.53;4941573;29;20416;-94
2024/03/07 08:54:20;;;;;;;12.90;4.43;;;;;;;6.93;100.00;98823.00;4940839;29;20048;-94
2024/03/07 08:56:52;;;;;;;15.13;5.15;;;;;;;7.11;100.00;98873.03;4936886;29;20048;-95
2024/03/07 08:59:28;;;;;;;15.35;4.55;;;;;;;7.16;100.00;98857.97;4939908;29;20043;-95
2024/03/07 09:04:44;;;;;;;11.68;4.20;;;;;;;7.14;100.00;98824.53;5052694;23;20058;-96
2024/03/07 09:07:16;;;;;;;11.18;4.97;;;;;;;7.47;100.00;98884.06;5013232;28;20132;-96
2024/03/07 09:09:55;;;;;;;13.27;4.82;;;;;;;7.07;100.00;98825.47;5007283;28;20026;-95
2024/03/07 09:12:51;;;;;;;12.05;5.40;;;;;;;7.38;100.00;98890.34;5008555;28;20051;-95
2024/03/07 09:15:42;;;;;;;10.45;4.05;;;;;;;7.04;100.00;98823.75;5001187;28;20113;-96
2024/03/07 09:18:23;;;;;;;13.85;5.10;;;;;;;7.29;100.00;98823.47;5016187;28;20053;-94
2024/03/07 09:21:03;;;;;;;12.02;4.93;;;;;;;7.52;100.00;98831.94;5008791;28;20039;-95
2024/03/07 09:23:38;;;;;;;17.08;4.65;;;;;;;7.73;100.00;98833.41;4996387;28;20101;-96
2024/03/07 09:26:44;;;;;;;14.75;6.00;;;;;;;7.59;100.00;98827.47;5005561;28;20166;-95
2024/03/07 09:29:34;;;;;;;16.35;5.50;;;;;;;8.05;100.00;98898.28;5000090;28;20129;-96
2024/03/07 09:32:18;;;;;;;12.32;4.90;;;;;;;7.52;100.00;98834.59;4994433;28;20050;-96
2024/03/07 09:35:03;;;;;;;16.60;6.05;;;;;;;7.80;100.00;98893.31;4993657;28;20105;-95
2024/03/07 09:40:29;;;;;;;15.85;5.32;;;;;;;8.06;100.00;98893.84;4977312;28;20058;-96
2024/03/07 09:43:31;;;;;;;12.93;5.65;;;;;;;8.27;100.00;98887.34;4945445;29;20039;-96
2024/03/07 09:46:20;;;;;;;16.17;5.35;;;;;;;8.34;100.00;98820.09;4956568;28;20050;-95
2024/03/07 09:49:00;;;;;;;14.20;5.80;;;;;;;8.49;100.00;98824.28;4950119;29;20070;-96
2024/03/07 09:51:34;;;;;;;13.90;6.13;;;;;;;8.80;100.00;98809.56;4976525;23;20059;-94
2024/03/07 09:54:13;;;;;;;11.82;5.68;;;;;;;8.99;100.00;98815.38;4964246;28;20046;-95
2024/03/07 09:56:49;;;;;;;16.25;6.32;;;;;;;9.10;100.00;98868.22;4966539;28;20043;-96
2024/03/07 09:59:21;;;;;;;11.43;5.38;;;;;;;8.65;100.00;98825.75;4969247;28;20055;-96
2024/03/07 10:02:12;;;;;;;12.32;6.32;;;;;;;9.02;100.00;98862.16;4968744;28;20502;-96
2024/03/07 10:05:04;;;;;;;14.57;6.43;;;;;;;9.58;100.00;98888.47;4988606;28;20047;-96
2024/03/07 10:07:34;;;;;;;13.15;6.05;;;;;;;9.24;100.00;98836.13;4979384;28;20133;-96
2024/03/07 10:13:17;;;;;;;13.27;5.50;;;;;;;8.58;100.00;98818.81;4988965;28;20054;-96
2024/03/07 10:15:59;;;;;;;14.25;6.40;;;;;;;8.82;100.00;98813.03;4976546;28;20031;-94
2024/03/07 10:18:31;;;;;;;15.05;5.85;;;;;;;8.69;100.00;98822.13;4961626;29;20043;-95
2024/03/07 10:21:08;;;;;;;17.38;6.95;;;;;;;9.25;100.00;98890.91;4957974;29;20052;-96
2024/03/07 10:24:11;;;;;;;15.00;5.93;;;;;;;9.01;100.00;98829.47;4978394;28;20054;-95
2024/03/07 10:26:52;;;;;;;13.60;6.57;;;;;;;9.42;100.00;98890.59;4954245;29;20071;-95
2024/03/07 10:29:45;;;;;;;15.73;6.68;;;;;;;9.44;100.00;98892.28;4959030;28;20043;-96
2024/03/07 10:32:37;;;;;;;11.88;5.07;;;;;;;9.46;100.00;98897.59;4969029;29;20044;-96
2024/03/07 10:35:30;;;;;;;13.43;5.05;;;;;;;9.38;100.00;98886.25;4932895;29;20048;-96
2024/03/07 10:38:00;;;;;;;13.60;6.38;;;;;;;8.93;100.00;98825.22;4931342;29;20121;-95
2024/03/07 10:40:46;;;;;;;19.08;7.65;;;;;;;8.93;100.00;98827.88;4957859;28;20146;-96
2024/03/07 10:43:20;;;;;;;14.32;6.00;;;;;;;8.84;100.00;98826.28;4954362;29;20054;-94
2024/03/07 10:46:23;;;;;;;12.45;5.82;;;;;;;9.31;100.00;98898.75;4949575;29;20063;-96
2024/03/07 10:49:28;;;;;;;12.75;5.47;;;;;;;8.13;100.00;98755.09;5553716;23;20532;-96
2024/03/07 10:52:29;;;;;;;9.90;4.57;;;;;;;9.16;100.00;98907.91;5736989;23;20045;-96
2024/03/07 10:55:18;;;;;;;11.07;5.22;;;;;;;9.33;100.00;98889.00;5031270;28;20049;-95
2024/03/07 11:03:52;;;;;;;15.98;6.13;;;;;;;9.19;100.00;98828.22;5360128;23;20058;-96
2024/03/07 11:06:20;;;;;;;15.25;5.50;;;;;;;9.55;100.00;98857.56;5031042;28;20119;-95
2024/03/07 11:09:10;;;;;;;13.85;6.20;;;;;;;9.48;100.00;98826.75;5030923;28;20054;-96
2024/03/07 11:22:57;;;;;;;17.08;8.50;;;;;;;9.93;100.00;98815.09;5399443;23;20050;-95
2024/03/07 11:25:30;;;;;;;15.95;8.10;;;;;;;10.08;100.00;98809.44;5032319;28;20053;-95
2024/03/07 11:27:59;;;;;;;14.48;6.55;;;;;;;10.34;100.00;98816.78;5050997;28;20076;-95
2024/03/07 11:30:31;;;;;;;12.32;6.38;;;;;;;10.33;100.00;98807.06;5030630;28;20041;-96
2024/03/07 11:33:13;;;;;;;12.30;5.93;;;;;;;10.16;100.00;98811.91;5035549;28;20105;-95
2024/03/07 11:35:48;;;;;;;;;;;;;;;10.54;100.00;98864.16;5029763;28;20041;-96
2024/03/07 11:38:34;;;;;;;10.77;4.25;;;;;;;10.66;100.00;98854.97;5025162;28;19921;-96
2024/03/07 11:41:12;;;;;;;10.15;5.03;;;;;;;10.25;100.00;98785.09;5020789;28;20049;-96
2024/03/07 11:43:49;;;;;;;10.95;6.32;;;;;;;10.73;100.00;98848.56;5010699;28;20073;-96
2024/03/07 11:46:21;;;;;;;10.45;4.65;;;;;;;10.56;100.00;98785.22;5002616;28;20477;-96
2024/03/07 11:48:47;;;;;;;9.27;4.68;;;;;;;10.69;100.00;98841.56;5009163;28;20413;-96
2024/03/07 11:51:15;;;;;;;9.35;4.50;;;;;;;10.58;100.00;98787.81;5037351;28;20050;-95
2024/03/07 11:53:51;;;;;;;11.90;5.30;;;;;;;10.55;100.00;98827.78;5022584;28;20057;-95
2024/03/07 11:59:01;;;;;;;8.48;4.47;;;;;;;9.38;100.00;98804.84;5196734;23;20057;-96
2024/03/07 12:01:33;;;;;;;7.20;3.83;;;;;;;9.16;100.00;98843.34;5029263;28;20049;-96
2024/03/07 12:04:05;;;;;;;8.57;3.70;;;;;;;9.23;100.00;98774.19;5099889;23;20049;-95
2024/03/07 12:06:52;;;;;;;7.50;4.28;;;;;;;9.47;100.00;98766.59;5149943;23;20053;-96
2024/03/07 12:12:11;;;;;;;9.82;4.20;;;;;;;9.66;100.00;98833.44;5542398;23;20051;-96
2024/03/07 12:14:52;;;;;;;7.13;3.13;;;;;;;9.66;100.00;98793.59;4963074;28;20055;-93
2024/03/07 12:17:22;;;;;;;6.80;3.33;;;;;;;9.80;100.00;98830.47;4959111;28;20050;-95
2024/03/07 12:19:56;;;;;;;6.63;3.25;;;;;;;9.62;100.00;98821.13;4954688;29;20043;-94
2024/03/07 12:22:38;;;;;;;7.30;3.38;;;;;;;9.61;100.00;98816.75;4944014;28;20078;-95
2024/03/07 12:25:08;;;;;;;6.25;2.83;;;;;;;9.44;100.00;98738.34;4953538;29;20062;-95
2024/03/07 12:27:38;;;;;;;8.63;3.22;;;;;;;9.91;100.00;98812.50;4941889;29;20055;-94
2024/03/07 12:30:19;;;;;;;8.65;4.20;;;;;;;9.53;100.00;98749.66;4952577;28;20047;-96
2024/03/07 12:32:56;;;;;;;7.18;3.30;;;;;;;10.32;100.00;98807.09;4940576;29;20082;-95
2024/03/07 12:35:22;;;;;;;3.97;2.20;;;;;;;10.25;100.00;98779.78;4944597;28;20045;-94
2024/03/07 12:37:51;;;;;;;4.75;2.95;;;;;;;10.37;100.00;98742.28;4952497;28;20047;-94
2024/03/07 12:40:20;;;;;;;5.35;2.70;;;;;;;10.93;100.00;98794.84;4959192;28;20537;-93
2024/03/07 12:42:50;;;;;;;3.25;1.90;;;;;;;10.93;100.00;98756.69;4960087;28;20050;-92
2024/03/07 12:45:21;;;;;;;5.68;2.38;;;;;;;10.99;100.00;98797.31;4960595;28;20082;-95
2024/03/07 12:47:50;;;;;;;5.32;2.30;;;;;;;11.08;100.00;98798.84;4963213;28;20501;-94
2024/03/07 12:50:20;;;;;;;6.18;2.00;;;;;;;11.26;100.00;98790.34;4959857;28;20490;-94
2024/03/07 12:52:50;;;;;;;6.45;2.35;;;;;;;11.57;100.00;98792.06;4958788;28;20057;-93
2024/03/07 12:55:18;;;;;;;5.75;2.47;;;;;;;11.43;100.00;98787.16;4962871;28;20047;-95
2024/03/07 12:57:51;;;;;;;4.57;2.42;;;;;;;11.06;100.00;98747.44;4960480;28;20047;-96
2024/03/07 13:00:21;;;;;;;5.93;2.17;;;;;;;11.24;100.00;98730.94;4945330;29;20517;-94
2024/03/07 13:02:47;;;;;;;;;;;;;;;11.79;100.00;98784.25;4939980;29;20044;-94
2024/03/07 13:05:18;;;;;;;4.63;2.25;;;;;;;11.38;100.00;98716.31;4950673;29;20441;-95
2024/03/07 13:07:48;;;;;;;3.65;1.98;;;;;;;11.50;100.00;98726.59;4968946;28;20035;-96
2024/03/07 13:10:20;;;;;;;3.67;2.00;;;;;;;12.03;100.00;98781.78;4967658;28;20134;-96
2024/03/07 13:12:48;;;;;;;6.97;2.33;;;;;;;11.90;100.00;98714.69;4974190;28;20085;-95
2024/03/07 13:15:26;;;;;;;6.30;2.15;;;;;;;12.46;100.00;98754.53;4956834;28;20047;-94
2024/03/07 13:17:55;;;;;;;4.72;2.88;;;;;;;12.06;100.00;98705.25;4975063;28;20094;-96
2024/03/07 13:20:26;;;;;;;5.80;2.65;;;;;;;12.46;100.00;98719.84;4975071;28;20050;-95
2024/03/07 13:22:53;;;;;;;5.53;2.65;;;;;;;12.72;100.00;98761.59;4965327;28;20074;-95
2024/03/07 13:25:30;;;;;;;4.28;2.55;;;;;;;12.47;100.00;98700.28;4965329;28;20078;-96
2024/03/07 13:27:59;;;;;;;4.50;2.10;;;;;;;12.09;100.00;98697.16;5149635;23;20052;-94
2024/03/07 13:30:30;;;;;;;5.60;3.08;;;;;;;12.01;100.00;98690.34;5028390;28;20073;-95
2024/03/07 13:33:02;;;;;;;5.43;2.92;;;;;;;12.21;100.00;98684.31;5022951;28;20038;-96
2024/03/07 13:35:38;;;;;;;8.82;3.00;;;;;;;12.62;100.00;98761.97;5038338;28;20049;-95
2024/03/07 13:38:31;;;;;;;5.15;2.63;;;;;;;12.36;100.00;98697.13;5044463;28;20100;-96
2024/03/07 13:44:20;;;;;;;5.75;2.80;;;;;;;12.40;100.00;98688.06;5014814;28;20073;-96
2024/03/07 13:46:49;;;;;;;5.50;2.60;;;;;;;12.82;100.00;98759.50;5021506;28;20038;-93
2024/03/07 13:49:23;;;;;;;7.25;3.40;;;;;;;12.32;100.00;98684.81;5004200;28;20041;-94
2024/03/07 13:51:59;;;;;;;7.20;3.28;;;;;;;12.03;100.00;98684.03;5003430;28;20047;-95
2024/03/07 13:54:34;;;;;;;6.25;3.80;;;;;;;12.63;100.00;98732.59;5004558;28;20092;-95
2024/03/07 13:57:28;;;;;;;5.32;2.83;;;;;;;12.49;100.00;98679.75;5007918;28;20053;-96
2024/03/07 14:00:31;;;;;;;5.93;3.20;;;;;;;12.44;100.00;98687.03;5030402;28;20049;-96
2024/03/07 14:03:45;;;;;;;5.50;3.13;;;;;;;12.11;100.00;98689.09;5020797;28;20046;-96
2024/03/07 14:06:42;;;;;;;6.10;3.10;;;;;;;12.31;100.00;98761.25;5147074;23;20123;-95
2024/03/07 14:09:36;;;;;;;6.88;3.47;;;;;;;12.33;100.00;98759.41;4999333;28;20054;-95
2024/03/07 14:16:08;;;;;;;7.43;3.88;;;;;;;12.31;100.00;98755.06;4996670;28;20046;-96
2024/03/07 14:19:20;;;;;;;5.25;3.17;;;;;;;12.01;100.00;98765.81;4983175;28;20047;-95
2024/03/07 14:22:04;;;;;;;7.07;3.45;;;;;;;11.74;100.00;98718.75;4983822;28;20031;-95
2024/03/07 14:25:05;;;;;;;7.32;3.88;;;;;;;12.07;100.00;98770.94;4984443;28;20043;-96
2024/03/07 14:27:49;;;;;;;8.25;4.15;;;;;;;11.72;100.00;98684.16;4978341;28;20042;-96
2024/03/07 14:30:45;;;;;;;7.78;3.65;;;;;;;12.19;100.00;98756.38;4976673;28;20046;-94
2024/03/07 14:33:27;;;;;;;6.95;3.20;;;;;;;12.15;100.00;98735.19;4963437;28;20043;-95
2024/03/07 14:36:04;;;;;;;6.05;3.63;;;;;;;12.22;100.00;98750.06;4964109;28;20054;-95
2024/03/07 14:38:53;;;;;;;8.10;3.70;;;;;;;11.81;100.00;98685.66;4963559;28;20061;-96
2024/03/07 14:41:39;;;;;;;6.97;3.63;;;;;;;12.18;100.00;98743.94;4962800;28;20039;-95
2024/03/07 14:44:07;;;;;;;10.15;5.03;;;;;;;11.99;100.00;98701.06;4961736;28;20047;-96
2024/03/07 14:46:40;;;;;;;7.10;3.85;;;;;;;12.25;100.00;98729.50;4968728;28;20069;-96
2024/03/07 14:49:10;;;;;;;6.10;3.42;;;;;;;11.82;100.00;98677.63;4983082;28;20043;-96
2024/03/07 14:51:53;;;;;;;8.48;3.78;;;;;;;11.79;100.00;98663.50;4995955;28;20050;-96
2024/03/07 14:58:22;;;;;;;6.75;2.75;;;;;;;12.00;100.00;98737.44;5063453;23;20056;-96
2024/03/07 15:01:09;;;;;;;7.53;3.33;;;;;;;11.47;100.00;98668.09;5126400;23;20148;-96
2024/03/07 15:03:45;;;;;;;6.63;3.00;;;;;;;11.78;100.00;98688.44;5004418;28;20121;-95
2024/03/07 15:06:16;;;;;;;5.03;2.30;;;;;;;12.10;100.00;98722.88;5134235;23;20084;-96
2024/03/07 15:16:30;;;;;;;4.68;2.28;;;;;;;11.51;100.00;98738.97;5043690;28;20042;-96
2024/03/07 15:18:56;;;;;;;5.15;2.10;;;;;;;11.63;100.00;98727.94;5020699;28;20401;-96
2024/03/07 15:21:23;;;;;;;3.65;1.88;;;;;;;11.68;100.00;98720.69;5019338;28;20045;-95
2024/03/07 15:23:52;;;;;;;5.15;2.38;;;;;;;11.76;100.00;98717.78;5017962;28;20041;-96
2024/03/07 15:26:23;;;;;;;4.30;2.42;;;;;;;11.70;100.00;98700.19;5027139;28;20404;-96
2024/03/07 15:28:49;;;;;;;4.95;2.60;;;;;;;11.89;100.00;98719.16;5018001;28;20060;-95
2024/03/07 15:31:15;;;;;;;6.05;2.22;;;;;;;11.84;100.00;98709.50;4996940;28;20493;-96
2024/03/07 15:33:43;;;;;;;4.65;2.10;;;;;;;11.35;100.00;98679.16;4998634;28;20048;-95
2024/03/07 15:36:10;;;;;;;5.55;2.88;;;;;;;11.26;100.00;98686.50;4999144;28;20042;-95
2024/03/07 15:38:41;;;;;;;7.28;2.97;;;;;;;11.20;100.00;98694.69;5005005;28;20045;-96
2024/03/07 15:41:10;;;;;;;5.32;2.60;;;;;;;11.28;100.00;98713.09;5037278;28;20049;-95
2024/03/07 15:43:36;;;;;;;7.00;2.88;;;;;;;11.32;100.00;98709.44;5020497;28;20097;-95
2024/03/07 15:46:10;;;;;;;17.70;7.57;;;;;;;10.89;100.00;98654.84;5029766;28;20079;-96
2024/03/07 15:52:14;;;;;;;47.33;17.95;;;;;;;10.79;100.00;98683.50;5023821;28;20037;-96
2024/03/07 15:54:41;;;;;;;21.02;8.57;;;;;;;10.35;100.00;98626.31;5025064;28;20056;-95
2024/03/07 15:57:10;;;;;;;14.38;6.03;;;;;;;10.47;100.00;98700.38;5018140;28;20100;-95
2024/03/07 15:59:44;;;;;;;11.52;4.60;;;;;;;10.53;100.00;98697.53;5023696;28;20045;-95
2024/03/07 16:03:10;;;;;;;10.10;4.90;;;;;;;10.18;100.00;98667.47;5031186;28;20042;-95
2024/03/07 16:08:55;;;;;;;11.77;4.70;;;;;;;10.36;100.00;98697.13;5158996;23;20057;-96
2024/03/07 16:11:29;;;;;;;10.52;4.53;;;;;;;10.05;100.00;98623.53;5013297;28;20052;-96
2024/03/07 16:14:23;;;;;;;9.18;3.97;;;;;;;10.16;100.00;98631.22;5010839;28;20042;-96
2024/03/07 16:17:14;;;;;;;13.50;6.05;;;;;;;9.98;100.00;98621.97;4991779;28;20145;-96
2024/03/07 16:26:04;;;;;;;9.63;4.82;;;;;;;10.20;100.00;98691.34;5130176;23;20069;-95
2024/03/07 16:28:35;;;;;;;11.18;5.72;;;;;;;10.08;100.00;98692.53;5000261;28;20046;-96
2024/03/07 16:31:16;;;;;;;9.65;5.32;;;;;;;9.70;100.00;98629.78;5001319;28;20046;-96
2024/03/07 16:33:51;;;;;;;8.05;4.47;;;;;;;9.63;100.00;98618.47;5000632;28;20045;-95
2024/03/07 16:36:29;;;;;;;10.45;5.18;;;;;;;9.97;100.00;98683.97;5000819;28;20050;-95
2024/03/07 16:39:11;;;;;;;10.95;5.30;;;;;;;9.90;100.00;98685.03;5012120;28;20050;-95
2024/03/07 16:41:58;;;;;;;;;;;;;;;9.83;100.00;98681.69;5013533;28;20105;-96
2024/03/07 16:44:38;;;;;;;14.02;5.65;;;;;;;9.34;100.00;98621.81;5016438;28;19925;-95
2024/03/07 16:47:20;;;;;;;10.90;5.10;;;;;;;9.29;100.00;98664.41;5001253;28;20050;-94
2024/03/07 16:49:52;;;;;;;10.70;5.03;;;;;;;9.14;100.00;98668.28;5002565;28;20136;-96
2024/03/07 16:52:37;;;;;;;8.82;4.13;;;;;;;8.90;100.00;98650.28;5003225;28;20038;-96
2024/03/07 16:55:15;;;;;;;7.82;3.58;;;;;;;9.11;100.00;98694.88;4983109;28;20573;-96
2024/03/07 16:57:52;;;;;;;11.32;4.43;;;;;;;8.97;100.00;98703.13;4984809;28;20053;-95
2024/03/07 17:00:27;;;;;;;10.02;3.15;;;;;;;8.79;100.00;98695.59;4984974;28;20124;-96
2024/03/07 17:02:55;;;;;;;7.80;2.75;;;;;;;8.22;100.00;98622.53;4986482;28;20050;-96
2024/03/07 17:05:26;;;;;;;8.07;3.55;;;;;;;8.59;100.00;98699.53;4996417;28;20042;-96
2024/03/07 17:07:55;;;;;;;6.43;3.13;;;;;;;8.03;100.00;98646.69;5006305;28;20050;-96
2024/03/07 17:10:29;;;;;;;6.22;2.90;;;;;;;7.92;100.00;98653.97;5010787;28;20073;-96
2024/03/07 17:12:58;;;;;;;6.93;3.33;;;;;;;7.81;100.00;98643.56;5002612;28;20560;-96
2024/03/07 17:15:29;;;;;;;6.60;3.08;;;;;;;7.94;100.00;98706.91;4995904;28;20030;-96
2024/03/07 17:18:10;;;;;;;6.05;3.13;;;;;;;7.44;100.00;98638.06;4992519;28;20084;-95
2024/03/07 17:20:39;;;;;;;9.40;3.83;;;;;;;7.90;100.00;98721.09;5016401;28;20075;-95
2024/03/07 17:23:06;;;;;;;8.20;3.63;;;;;;;7.88;100.00;98684.06;5009458;28;20073;-95
2024/03/07 17:25:35;;;;;;;8.70;3.83;;;;;;;8.11;100.00;98709.22;5003086;28;20149;-95
2024/03/07 17:28:17;;;;;;;10.60;5.45;;;;;;;7.55;100.00;98641.38;5020294;28;20096;-96
2024/03/07 17:30:50;;;;;;;10.65;4.68;;;;;;;8.06;100.00;98701.38;4998277;28;20045;-96
2024/03/07 17:33:35;;;;;;;10.73;5.53;;;;;;;7.29;100.00;98638.31;4992928;28;20109;-95
2024/03/07 17:36:07;;;;;;;12.13;6.00;;;;;;;7.19;100.00;98645.50;5033682;23;20179;-96
2024/03/07 17:38:36;;;;;;;17.27;7.20;;;;;;;7.32;100.00;98694.66;4969087;28;20047;-94
2024/03/07 17:41:03;;;;;;;13.40;6.55;;;;;;;7.36;100.00;98712.22;4947552;28;20126;-95
2024/03/07 17:43:37;;;;;;;10.80;4.57;;;;;;;6.95;100.00;98652.88;4956429;28;20027;-96
2024/03/07 17:46:06;;;;;;;9.70;4.75;;;;;;;7.32;100.00;98715.81;4959797;28;20044;-95
2024/03/07 17:48:36;;;;;;;10.18;5.45;;;;;;;6.88;100.00;98645.94;4963285;28;20498;-96
2024/03/07 17:51:06;;;;;;;7.65;3.60;;;;;;;7.39;100.00;98711.31;4954162;28;20063;-96
2024/03/07 17:53:33;;;;;;;11.13;3.88;;;;;;;6.96;100.00;98643.19;4960949;28;20070;-95
2024/03/07 17:55:59;;;;;;;7.43;3.30;;;;;;;7.59;100.00;98711.03;4957011;28;20043;-95
2024/03/07 17:58:25;;;;;;;8.18;3.78;;;;;;;7.63;100.00;98664.19;4964116;28;20067;-95
2024/03/07 18:00:52;;;;;;;7.45;3.42;;;;;;;7.94;100.00;98689.25;4955553;28;20043;-93
2024/03/07 18:03:24;;;;;;;7.63;3.70;;;;;;;8.25;100.00;98669.25;4962005;28;20035;-95
2024/03/07 18:06:03;;;;;;;10.60;4.80;;;;;;;8.20;100.00;98641.09;4962498;28;20043;-96
2024/03/07 18:08:34;;;;;;;7.63;3.22;;;;;;;8.29;100.00;98633.88;4970591;28;20043;-96
2024/03/07 18:11:00;;;;;;;9.70;4.03;;;;;;;8.72;100.00;98710.75;4963673;28;20514;-95
2024/03/07 18:13:28;;;;;;;7.35;3.35;;;;;;;8.27;100.00;98643.63;5046735;23;20051;-96
2024/03/07 18:15:58;;;;;;;7.80;3.55;;;;;;;8.71;100.00;98709.00;5076967;23;20068;-96
2024/03/07 18:18:49;;;;;;;7.47;3.20;;;;;;;8.02;100.00;98629.06;5026615;28;20069;-96
2024/03/07 18:21:38;;;;;;;6.70;3.58;;;;;;;8.00;100.00;98644.13;5029455;28;20073;-96
2024/03/07 18:24:14;;;;;;;9.63;4.07;;;;;;;7.80;100.00;98630.34;5024028;28;20041;-95
2024/03/07 18:26:49;;;;;;;13.40;6.45;;;;;;;8.24;100.00;98692.25;5023402;28;20038;-95
2024/03/07 18:29:16;;;;;;;12.60;5.72;;;;;;;8.29;100.00;98687.72;5134774;23;20049;-96
2024/03/07 18:31:46;;;;;;;14.82;5.93;;;;;;;8.53;100.00;98712.03;5024442;28;20069;-96
2024/03/07 18:34:17;;;;;;;8.43;4.85;;;;;;;8.56;100.00;98714.59;5021538;28;20046;-95
2024/03/07 18:36:44;;;;;;;11.07;4.78;;;;;;;7.87;100.00;98639.97;5020484;28;20072;-94
2024/03/07 18:39:15;;;;;;;12.68;5.18;;;;;;;7.75;100.00;98637.53;5021096;28;20054;-95
2024/03/07 18:41:42;;;;;;;11.68;5.35;;;;;;;8.23;100.00;98717.84;5021320;28;20060;-95
2024/03/07 18:44:11;;;;;;;12.20;5.18;;;;;;;8.17;100.00;98709.13;5028468;28;20042;-95
2024/03/07 18:46:37;;;;;;;8.90;4.30;;;;;;;8.20;100.00;98709.94;5020122;28;20412;-96
2024/03/07 18:49:08;;;;;;;10.80;5.13;;;;;;;7.91;100.00;98685.75;5004457;28;20069;-96
2024/03/07 18:51:41;;;;;;;12.95;5.32;;;;;;;7.60;100.00;98642.16;5021748;28;20049;-96
2024/03/07 18:54:09;;;;;;;12.07;5.68;;;;;;;7.85;100.00;98655.00;5122204;23;21416;-96
2024/03/07 18:56:36;;;;;;;10.73;5.18;;;;;;;8.10;100.00;98702.19;5022023;28;20044;-96
2024/03/07 18:59:11;;;;;;;9.82;5.18;;;;;;;7.66;100.00;98633.25;5028841;28;20077;-94
2024/03/07 19:04:30;;;;;;;8.45;5.10;;;;;;;8.15;100.00;98679.16;5168343;22;20781;-95
2024/03/07 19:06:58;;;;;;;10.35;4.38;;;;;;;7.92;100.00;98631.94;5006069;28;20062;-95
2024/03/07 19:09:38;;;;;;;8.98;4.35;;;;;;;8.08;100.00;98657.19;5120579;23;20406;-96
2024/03/07 19:14:52;;;;;;;8.80;4.40;;;;;;;8.26;100.00;98700.13;5022059;28;20111;-96
2024/03/07 19:17:28;;;;;;;9.27;4.10;;;;;;;8.22;100.00;98697.56;5077756;23;20076;-96
2024/03/07 19:20:03;;;;;;;10.57;4.22;;;;;;;7.78;100.00;98630.38;5028900;28;20026;-96
2024/03/07 19:22:41;;;;;;;9.07;4.25;;;;;;;8.17;100.00;98694.09;5062289;23;20078;-96
2024/03/07 19:25:08;;;;;;;10.93;3.47;;;;;;;7.81;100.00;98626.81;4961825;28;20043;-94
2024/03/07 19:27:34;;;;;;;8.25;4.20;;;;;;;7.79;100.00;98644.50;4961919;28;20198;-95
2024/03/07 19:30:01;;;;;;;10.55;4.97;;;;;;;7.93;100.00;98689.25;4962981;28;20471;-94
2024/03/07 19:32:28;;;;;;;8.35;4.28;;;;;;;7.69;100.00;98664.97;4961494;28;20130;-94
2024/03/07 19:34:54;;;;;;;8.70;4.40;;;;;;;7.73;100.00;98706.34;4960769;28;20580;-95
2024/03/07 19:37:24;;;;;;;9.93;4.40;;;;;;;7.28;100.00;98629.47;4961513;28;20046;-94
2024/03/07 19:39:54;;;;;;;11.73;4.43;;;;;;;7.39;100.00;98666.34;4960978;28;20043;-95
2024/03/07 19:42:20;;;;;;;7.85;3.63;;;;;;;7.49;100.00;98723.50;4960009;28;20047;-95
2024/03/07 19:44:48;;;;;;;10.27;4.20;;;;;;;7.44;100.00;98730.66;4959760;28;20047;-94
2024/03/07 19:47:19;;;;;;;10.25;4.55;;;;;;;7.32;100.00;98726.41;4959344;28;20129;-95
2024/03/07 19:49:46;;;;;;;13.30;6.03;;;;;;;6.88;100.00;98687.38;4961553;28;20076;-94
2024/03/07 19:52:13;;;;;;;14.00;7.72;;;;;;;7.06;100.00;98736.47;4961564;28;20042;-94
2024/03/07 19:54:39;;;;;;;17.27;9.52;;;;;;;6.55;100.00;98671.06;4960911;28;20039;-96
2024/03/07 19:57:10;;;;;;;18.85;8.77;;;;;;;6.88;100.00;98733.19;4959278;28;20454;-95
2024/03/07 19:59:39;;;;;;;18.38;8.52;;;;;;;6.78;100.00;98726.25;4959280;28;20039;-94
2024/03/07 20:02:08;;;;;;;10.70;4.90;;;;;;;6.46;100.00;98681.72;4958438;28;20043;-94
2024/03/07 20:04:36;;;;;;;12.52;4.90;;;;;;;6.32;100.00;98672.19;4960033;28;20050;-95
2024/03/07 20:07:03;;;;;;;12.27;4.80;;;;;;;6.75;100.00;98724.53;4959601;28;20047;-95
2024/03/07 20:09:29;;;;;;;10.10;4.63;;;;;;;6.56;100.00;98701.88;4962908;28;20146;-96
2024/03/07 20:11:58;;;;;;;9.68;4.20;;;;;;;6.67;100.00;98730.81;4964767;28;20083;-95
2024/03/07 20:14:48;;;;;;;8.95;3.40;;;;;;;6.15;100.00;98658.31;5130574;23;20077;-96
2024/03/07 20:17:15;;;;;;;6.40;3.30;;;;;;;6.58;100.00;98718.56;4985485;28;20490;-95
2024/03/07 20:19:45;;;;;;;9.32;3.60;;;;;;;5.95;100.00;98646.22;5006591;28;20042;-96
2024/03/07 20:22:13;;;;;;;10.00;4.22;;;;;;;6.50;100.00;98718.66;5025644;28;20042;-96
2024/03/07 20:24:57;;;;;;;9.63;4.78;;;;;;;6.26;100.00;98727.72;5026865;28;20042;-95
2024/03/07 20:27:23;;;;;;;8.13;3.88;;;;;;;6.37;100.00;98724.97;5014459;28;20077;-94
2024/03/07 20:29:51;;;;;;;9.65;4.40;;;;;;;6.33;100.00;98733.81;5032283;28;20045;-92
2024/03/07 20:32:17;;;;;;;10.05;4.20;;;;;;;6.29;100.00;98729.44;5034974;28;20037;-93
2024/03/07 20:34:44;;;;;;;11.02;5.05;;;;;;;6.25;100.00;98722.47;5011007;28;20057;-94
2024/03/07 20:37:10;;;;;;;8.98;4.35;;;;;;;6.24;100.00;98726.00;5008013;28;20053;-92
2024/03/07 20:39:41;;;;;;;9.07;5.18;;;;;;;5.66;100.00;98653.50;5007324;28;20053;-95
2024/03/07 20:42:10;;;;;;;10.23;4.70;;;;;;;6.11;100.00;98736.66;5004943;28;20049;-95
2024/03/07 20:44:37;;;;;;;10.05;5.35;;;;;;;5.99;100.00;98742.09;4991188;28;20493;-93
2024/03/07 20:47:06;;;;;;;12.40;6.32;;;;;;;5.84;100.00;98736.91;5001724;28;20046;-93
2024/03/07 20:49:35;;;;;;;12.52;5.15;;;;;;;5.76;100.00;98744.88;5014888;28;20849;-93
2024/03/07 20:52:03;;;;;;;14.77;5.65;;;;;;;5.85;100.00;98718.41;5002917;28;20559;-93
2024/03/07 20:54:29;;;;;;;8.40;4.30;;;;;;;6.07;100.00;98739.34;5015894;28;20045;-93
2024/03/07 20:56:57;;;;;;;11.02;4.35;;;;;;;5.64;100.00;98673.75;5002302;28;20077;-94
2024/03/07 20:59:24;;;;;;;10.02;4.25;;;;;;;5.76;100.00;98692.09;5010845;28;20050;-93
2024/03/07 21:01:50;;;;;;;8.02;3.92;;;;;;;5.49;100.00;98657.19;5017741;28;20066;-94
2024/03/07 21:04:20;;;;;;;11.57;4.43;;;;;;;5.52;100.00;98699.34;4991517;28;20045;-94
2024/03/07 21:06:46;;;;;;;9.30;4.60;;;;;;;5.77;100.00;98757.19;5001259;28;20045;-95
2024/03/07 21:09:14;;;;;;;11.32;4.53;;;;;;;5.74;100.00;98759.84;5001721;28;20038;-94
2024/03/07 21:11:40;;;;;;;13.32;6.72;;;;;;;5.51;100.00;98723.97;5002304;28;20042;-96
2024/03/07 21:14:09;;;;;;;13.07;6.05;;;;;;;5.64;100.00;98752.88;5001549;28;20060;-94
2024/03/07 21:16:36;;;;;;;11.68;6.07;;;;;;;5.63;100.00;98748.50;5000991;28;20038;-94
2024/03/07 21:19:04;;;;;;;14.88;6.65;;;;;;;5.31;100.00;98716.22;5001488;28;20498;-94
2024/03/07 21:21:36;;;;;;;14.55;7.22;;;;;;;5.09;100.00;98683.81;5001500;28;20046;-94
2024/03/07 21:24:05;;;;;;;13.88;6.35;;;;;;;5.41;100.00;98764.47;5001375;28;20490;-93
2024/03/07 21:26:31;;;;;;;11.82;5.85;;;;;;;5.21;100.00;98732.97;5000710;28;20104;-94
2024/03/07 21:28:58;;;;;;;15.63;7.07;;;;;;;5.33;100.00;98769.81;5007721;28;20046;-94
2024/03/07 21:31:27;;;;;;;18.60;9.35;;;;;;;5.21;100.00;98761.97;5021073;28;20041;-95
2024/03/07 21:33:53;;;;;;;14.85;7.78;;;;;;;4.97;100.00;98725.22;5021387;28;20049;-95
2024/03/07 21:36:20;;;;;;;16.45;8.68;;;;;;;5.12;100.00;98723.34;5020032;28;20049;-95
2024/03/07 21:38:47;;;;;;;13.95;7.15;;;;;;;5.00;100.00;98704.09;5020687;28;20048;-95
2024/03/07 21:41:20;;;;;;;12.43;5.57;;;;;;;5.34;100.00;98761.00;5020515;28;20069;-93
2024/03/07 21:43:50;;;;;;;13.20;6.40;;;;;;;5.07;100.00;98738.31;5020185;28;20052;-95